createdAt,value
2023-07-19T00:00:45.650Z,16.02
2023-07-19T00:01:52.755Z,15.96
2023-07-19T00:04:19.431Z,15.94
2023-07-19T00:05:45.703Z,15.94
2023-07-19T00:06:46.080Z,15.90
2023-07-19T00:09:12.472Z,15.88
2023-07-19T00:10:45.655Z,15.88
2023-07-19T00:11:38.844Z,15.84
2023-07-19T00:14:07.582Z,15.36
2023-07-19T00:15:45.659Z,15.36
2023-07-19T00:16:34.521Z,15.81
2023-07-19T00:19:14.257Z,15.46
2023-07-19T00:20:45.720Z,15.46
2023-07-19T00:21:46.643Z,15.72
2023-07-19T00:24:13.090Z,15.68
2023-07-19T00:25:45.692Z,15.68
2023-07-19T00:26:39.464Z,15.58
2023-07-19T00:29:05.886Z,15.61
2023-07-19T00:30:45.666Z,15.61
2023-07-19T00:31:32.416Z,15.59
2023-07-19T00:33:58.935Z,14.20
2023-07-19T00:35:45.639Z,14.20
2023-07-19T00:36:25.411Z,15.37
2023-07-19T00:38:52.193Z,15.61
2023-07-19T00:40:45.653Z,15.61
2023-07-19T00:41:19.845Z,15.59
2023-07-19T00:43:47.643Z,15.60
2023-07-19T00:45:45.660Z,15.60
2023-07-19T00:46:14.691Z,15.44
2023-07-19T00:48:42.915Z,15.44
2023-07-19T00:50:45.657Z,15.44
2023-07-19T00:51:09.894Z,15.03
2023-07-19T00:53:38.025Z,15.31
2023-07-19T00:55:45.652Z,15.31
2023-07-19T00:56:04.839Z,15.16
2023-07-19T00:58:32.262Z,15.19
2023-07-19T01:00:45.649Z,15.19
2023-07-19T01:00:59.694Z,14.90
2023-07-19T01:03:26.209Z,15.08
2023-07-19T01:05:45.720Z,15.08
2023-07-19T01:05:52.761Z,14.90
2023-07-19T01:08:19.601Z,14.59
2023-07-19T01:10:46.807Z,14.63
2023-07-19T01:10:46.952Z,14.63
2023-07-19T01:13:13.327Z,14.84
2023-07-19T01:15:41.367Z,14.86
2023-07-19T01:15:45.635Z,14.86
2023-07-19T01:18:08.162Z,14.85
2023-07-19T01:20:35.735Z,14.83
2023-07-19T01:20:45.653Z,14.83
2023-07-19T01:23:03.329Z,14.61
2023-07-19T01:25:29.849Z,13.73
2023-07-19T01:25:45.680Z,13.73
2023-07-19T01:27:56.246Z,14.42
2023-07-19T01:30:22.757Z,14.49
2023-07-19T01:30:45.634Z,14.49
2023-07-19T01:32:49.323Z,14.54
2023-07-19T01:35:16.446Z,14.43
2023-07-19T01:35:45.654Z,14.43
2023-07-19T01:37:42.950Z,14.43
2023-07-19T01:40:12.570Z,14.39
2023-07-19T01:40:45.640Z,14.39
2023-07-19T01:42:41.759Z,14.40
2023-07-19T01:45:08.884Z,14.33
2023-07-19T01:45:45.667Z,14.33
2023-07-19T01:47:35.506Z,14.31
2023-07-19T01:50:01.988Z,14.28
2023-07-19T01:50:45.654Z,14.28
2023-07-19T01:52:28.389Z,14.23
2023-07-19T01:54:54.743Z,14.26
2023-07-19T01:55:45.654Z,14.26
2023-07-19T01:57:21.175Z,14.20
2023-07-19T01:59:47.562Z,14.28
2023-07-19T02:00:45.652Z,14.28
2023-07-19T02:02:14.008Z,14.27
2023-07-19T02:04:40.593Z,13.80
2023-07-19T02:05:45.753Z,13.80
2023-07-19T02:07:07.139Z,13.81
2023-07-19T02:09:33.534Z,14.20
2023-07-19T02:10:45.679Z,14.20
2023-07-19T02:11:59.964Z,14.14
2023-07-19T02:14:26.417Z,14.12
2023-07-19T02:15:45.713Z,14.12
2023-07-19T02:16:53.278Z,14.07
2023-07-19T02:19:19.692Z,13.98
2023-07-19T02:20:45.655Z,13.98
2023-07-19T02:21:46.340Z,13.92
2023-07-19T02:24:12.725Z,13.79
2023-07-19T02:25:45.657Z,13.79
2023-07-19T02:26:39.251Z,13.90
2023-07-19T02:29:05.640Z,13.64
2023-07-19T02:30:45.678Z,13.64
2023-07-19T02:31:32.678Z,13.84
2023-07-19T02:33:59.087Z,13.63
2023-07-19T02:35:46.694Z,13.63
2023-07-19T02:36:25.509Z,14.01
2023-07-19T02:38:51.866Z,14.12
2023-07-19T02:40:45.638Z,14.12
2023-07-19T02:41:18.385Z,14.17
2023-07-19T02:43:45.253Z,14.19
2023-07-19T02:45:45.658Z,14.19
2023-07-19T02:46:11.658Z,14.35
2023-07-19T02:48:38.038Z,14.42
2023-07-19T02:50:45.658Z,14.42
2023-07-19T02:51:04.475Z,14.54
2023-07-19T02:53:30.861Z,14.60
2023-07-19T02:55:45.647Z,14.60
2023-07-19T02:55:57.337Z,14.50
2023-07-19T02:58:24.293Z,14.49
2023-07-19T03:00:45.704Z,14.49
2023-07-19T03:00:54.375Z,13.88
2023-07-19T03:03:21.229Z,14.43
2023-07-19T03:05:45.904Z,14.43
2023-07-19T03:05:47.784Z,14.53
2023-07-19T03:08:16.520Z,14.46
2023-07-19T03:10:42.957Z,14.40
2023-07-19T03:10:45.662Z,14.40
2023-07-19T03:13:10.212Z,14.34
2023-07-19T03:15:36.702Z,14.29
2023-07-19T03:15:45.671Z,14.29
2023-07-19T03:18:04.588Z,13.93
2023-07-19T03:20:32.246Z,14.39
2023-07-19T03:20:45.774Z,14.39
2023-07-19T03:22:59.402Z,14.42
2023-07-19T03:25:25.899Z,14.45
2023-07-19T03:25:45.673Z,14.45
2023-07-19T03:27:52.378Z,14.21
2023-07-19T03:30:19.092Z,14.51
2023-07-19T03:30:45.706Z,14.51
2023-07-19T03:32:47.964Z,14.56
2023-07-19T03:35:14.688Z,14.61
2023-07-19T03:35:45.657Z,14.61
2023-07-19T03:37:45.471Z,14.64
2023-07-19T03:40:15.512Z,14.42
2023-07-19T03:40:45.715Z,14.42
2023-07-19T03:42:42.226Z,14.63
2023-07-19T03:45:08.981Z,14.73
2023-07-19T03:45:45.711Z,14.73
2023-07-19T03:47:35.499Z,14.76
2023-07-19T03:50:02.053Z,14.80
2023-07-19T03:50:45.666Z,14.80
2023-07-19T03:52:28.668Z,14.86
2023-07-19T03:54:55.987Z,14.88
2023-07-19T03:55:45.686Z,14.88
2023-07-19T03:57:22.445Z,14.64
2023-07-19T03:59:48.803Z,15.00
2023-07-19T04:00:45.675Z,15.00
2023-07-19T04:02:15.319Z,15.04
2023-07-19T04:04:44.217Z,15.09
2023-07-19T04:05:45.734Z,15.09
2023-07-19T04:07:10.625Z,14.88
2023-07-19T04:09:37.029Z,15.09
2023-07-19T04:10:45.690Z,15.09
2023-07-19T04:12:03.701Z,15.27
2023-07-19T04:14:30.086Z,14.58
2023-07-19T04:15:45.680Z,14.58
2023-07-19T04:16:56.532Z,15.41
2023-07-19T04:19:23.074Z,15.43
2023-07-19T04:20:45.660Z,15.43
2023-07-19T04:21:49.706Z,15.45
2023-07-19T04:24:16.154Z,15.50
2023-07-19T04:25:45.679Z,15.50
2023-07-19T04:26:42.516Z,15.53
2023-07-19T04:29:08.881Z,15.59
2023-07-19T04:30:47.207Z,15.59
2023-07-19T04:31:35.247Z,15.67
2023-07-19T04:34:01.694Z,15.76
2023-07-19T04:35:45.667Z,15.76
2023-07-19T04:36:28.272Z,15.85
2023-07-19T04:38:54.631Z,15.69
2023-07-19T04:40:45.680Z,15.69
2023-07-19T04:41:21.267Z,14.90
2023-07-19T04:43:47.854Z,15.41
2023-07-19T04:45:45.705Z,15.41
2023-07-19T04:46:14.519Z,15.88
2023-07-19T04:48:40.951Z,15.95
2023-07-19T04:50:45.670Z,15.95
2023-07-19T04:51:07.587Z,15.86
2023-07-19T04:53:34.113Z,16.08
2023-07-19T04:55:45.668Z,16.08
2023-07-19T04:56:00.642Z,15.82
2023-07-19T04:58:27.117Z,15.86
2023-07-19T05:00:45.690Z,15.86
2023-07-19T05:00:53.508Z,16.32
2023-07-19T05:03:20.052Z,16.45
2023-07-19T05:05:48.870Z,16.57
2023-07-19T05:05:49.025Z,16.57
2023-07-19T05:08:15.365Z,16.66
2023-07-19T05:10:42.024Z,16.60
2023-07-19T05:10:45.656Z,16.60
2023-07-19T05:13:08.873Z,16.70
2023-07-19T05:15:35.948Z,16.61
2023-07-19T05:15:45.672Z,16.61
2023-07-19T05:18:02.536Z,16.67
2023-07-19T05:20:32.856Z,16.29
2023-07-19T05:20:45.686Z,16.29
2023-07-19T05:22:59.673Z,16.75
2023-07-19T05:25:26.154Z,16.77
2023-07-19T05:25:45.672Z,16.77
2023-07-19T05:27:52.540Z,16.85
2023-07-19T05:30:19.167Z,16.93
2023-07-19T05:30:45.682Z,16.93
2023-07-19T05:32:45.591Z,16.57
2023-07-19T05:35:12.146Z,16.90
2023-07-19T05:35:45.670Z,16.90
2023-07-19T05:37:40.321Z,17.19
2023-07-19T05:40:11.218Z,17.42
2023-07-19T05:40:45.696Z,17.42
2023-07-19T05:42:37.635Z,17.75
2023-07-19T05:45:04.602Z,17.80
2023-07-19T05:45:45.717Z,17.80
2023-07-19T05:47:31.379Z,17.97
2023-07-19T05:49:57.926Z,18.08
2023-07-19T05:50:45.690Z,18.08
2023-07-19T05:52:24.460Z,18.14
2023-07-19T05:54:50.858Z,18.14
2023-07-19T05:55:45.669Z,18.14
2023-07-19T05:57:17.305Z,18.20
2023-07-19T05:59:43.772Z,18.31
2023-07-19T06:00:45.726Z,18.31
2023-07-19T06:02:10.342Z,18.36
2023-07-19T06:04:36.916Z,18.32
2023-07-19T06:05:45.792Z,18.32
2023-07-19T06:07:03.762Z,18.04
2023-07-19T06:09:31.528Z,18.06
2023-07-19T06:10:45.692Z,18.06
2023-07-19T06:11:58.831Z,18.02
2023-07-19T06:14:25.530Z,17.63
2023-07-19T06:15:45.699Z,17.63
2023-07-19T06:16:51.983Z,17.91
2023-07-19T06:19:20.779Z,17.57
2023-07-19T06:20:45.695Z,17.57
2023-07-19T06:21:47.540Z,17.90
2023-07-19T06:24:14.095Z,17.51
2023-07-19T06:25:45.685Z,17.51
2023-07-19T06:26:40.490Z,18.05
2023-07-19T06:29:06.968Z,18.18
2023-07-19T06:30:45.731Z,18.18
2023-07-19T06:31:33.564Z,18.40
2023-07-19T06:34:00.003Z,18.54
2023-07-19T06:35:45.719Z,18.54
2023-07-19T06:36:27.780Z,18.77
2023-07-19T06:38:54.352Z,18.83
2023-07-19T06:40:45.704Z,18.83
2023-07-19T06:41:21.034Z,18.66
2023-07-19T06:43:47.911Z,18.76
2023-07-19T06:45:45.688Z,18.76
2023-07-19T06:46:14.296Z,18.62
2023-07-19T06:48:40.655Z,19.01
2023-07-19T06:50:45.696Z,19.01
2023-07-19T06:51:07.153Z,19.05
2023-07-19T06:53:33.565Z,19.11
2023-07-19T06:55:45.681Z,19.11
2023-07-19T06:56:00.644Z,19.21
2023-07-19T06:58:27.344Z,19.38
2023-07-19T07:00:45.703Z,19.38
2023-07-19T07:00:58.159Z,19.50
2023-07-19T07:03:25.284Z,19.68
2023-07-19T07:05:45.760Z,19.68
2023-07-19T07:05:51.837Z,19.88
2023-07-19T07:08:20.318Z,19.85
2023-07-19T07:10:46.649Z,19.85
2023-07-19T07:10:46.781Z,19.85
2023-07-19T07:13:13.134Z,19.87
2023-07-19T07:15:39.548Z,19.49
2023-07-19T07:15:45.683Z,19.49
2023-07-19T07:18:05.951Z,19.14
2023-07-19T07:20:35.964Z,19.54
2023-07-19T07:20:45.685Z,19.54
2023-07-19T07:23:03.007Z,19.24
2023-07-19T07:25:31.113Z,19.15
2023-07-19T07:25:45.802Z,19.15
2023-07-19T07:27:58.588Z,19.15
2023-07-19T07:30:24.987Z,18.87
2023-07-19T07:30:45.689Z,18.87
2023-07-19T07:32:51.443Z,19.29
2023-07-19T07:35:17.929Z,19.46
2023-07-19T07:35:45.670Z,19.46
2023-07-19T07:37:44.346Z,19.66
2023-07-19T07:40:13.555Z,19.43
2023-07-19T07:40:45.663Z,19.43
2023-07-19T07:42:42.338Z,19.77
2023-07-19T07:45:09.336Z,19.98
2023-07-19T07:45:45.678Z,19.98
2023-07-19T07:47:36.188Z,19.86
2023-07-19T07:50:04.614Z,19.91
2023-07-19T07:50:45.701Z,19.91
2023-07-19T07:52:31.654Z,20.31
2023-07-19T07:54:58.134Z,20.38
2023-07-19T07:55:45.674Z,20.38
2023-07-19T07:57:24.534Z,20.35
2023-07-19T07:59:51.025Z,20.12
2023-07-19T08:00:45.797Z,20.12
2023-07-19T08:02:17.483Z,20.17
2023-07-19T08:04:44.102Z,19.68
2023-07-19T08:05:45.806Z,19.68
2023-07-19T08:07:10.528Z,20.07
2023-07-19T08:09:36.889Z,20.48
2023-07-19T08:10:45.682Z,20.48
2023-07-19T08:12:03.547Z,20.58
2023-07-19T08:14:29.948Z,20.69
2023-07-19T08:15:45.691Z,20.69
2023-07-19T08:16:56.382Z,20.55
2023-07-19T08:19:22.754Z,20.78
2023-07-19T08:20:45.691Z,20.78
2023-07-19T08:21:49.201Z,20.69
2023-07-19T08:24:15.757Z,21.02
2023-07-19T08:25:45.836Z,21.02
2023-07-19T08:26:42.206Z,21.09
2023-07-19T08:29:08.637Z,20.14
2023-07-19T08:30:45.722Z,20.14
2023-07-19T08:31:35.721Z,20.88
2023-07-19T08:34:02.351Z,20.82
2023-07-19T08:35:45.706Z,20.82
2023-07-19T08:36:31.024Z,20.73
2023-07-19T08:38:57.878Z,20.64
2023-07-19T08:40:45.716Z,20.64
2023-07-19T08:41:29.240Z,20.83
2023-07-19T08:43:56.253Z,20.84
2023-07-19T08:45:45.686Z,20.84
2023-07-19T08:46:23.387Z,20.76
2023-07-19T08:48:50.053Z,21.10
2023-07-19T08:50:45.692Z,21.10
2023-07-19T08:51:17.883Z,21.06
2023-07-19T08:53:45.658Z,21.46
2023-07-19T08:55:45.690Z,21.46
2023-07-19T08:56:13.116Z,21.38
2023-07-19T08:58:41.153Z,22.07
2023-07-19T09:00:47.440Z,22.07
2023-07-19T09:01:08.317Z,22.46
2023-07-19T09:03:35.249Z,22.52
2023-07-19T09:05:45.802Z,22.52
2023-07-19T09:06:02.513Z,22.00
2023-07-19T09:08:39.169Z,21.84
2023-07-19T09:10:45.687Z,21.84
2023-07-19T09:11:05.925Z,21.87
2023-07-19T09:13:35.913Z,21.94
2023-07-19T09:15:45.678Z,21.94
2023-07-19T09:16:04.892Z,22.25
2023-07-19T09:18:38.822Z,21.63
2023-07-19T09:20:45.705Z,21.63
2023-07-19T09:21:06.156Z,21.94
2023-07-19T09:23:39.677Z,22.26
2023-07-19T09:25:45.700Z,22.26
2023-07-19T09:26:07.048Z,22.23
2023-07-19T09:28:36.790Z,22.20
2023-07-19T09:30:45.712Z,22.20
2023-07-19T09:33:34.634Z,22.18
2023-07-19T09:35:46.275Z,22.18
2023-07-19T09:36:01.023Z,22.51
2023-07-19T09:38:27.529Z,22.87
2023-07-19T09:40:45.707Z,22.87
2023-07-19T09:40:55.350Z,23.24
2023-07-19T09:43:22.425Z,23.21
2023-07-19T09:45:45.711Z,23.21
2023-07-19T09:45:50.310Z,23.25
2023-07-19T09:48:17.607Z,23.36
2023-07-19T09:50:46.727Z,23.81
2023-07-19T09:50:46.846Z,23.81
2023-07-19T09:53:14.586Z,24.40
2023-07-19T09:55:41.353Z,24.36
2023-07-19T09:55:45.680Z,24.36
2023-07-19T09:58:12.315Z,24.24
2023-07-19T10:00:40.255Z,23.95
2023-07-19T10:00:45.703Z,23.95
2023-07-19T10:03:08.566Z,23.89
2023-07-19T10:05:35.660Z,24.13
2023-07-19T10:05:45.865Z,24.13
2023-07-19T10:08:05.084Z,23.98
2023-07-19T10:10:42.903Z,23.93
2023-07-19T10:10:45.695Z,23.93
2023-07-19T10:13:09.938Z,24.53
2023-07-19T10:15:36.915Z,24.84
2023-07-19T10:15:45.671Z,24.84
2023-07-19T10:18:11.026Z,24.59
2023-07-19T10:20:37.550Z,24.70
2023-07-19T10:20:45.707Z,24.70
2023-07-19T10:23:14.724Z,25.12
2023-07-19T10:25:50.459Z,25.15
2023-07-19T10:25:50.610Z,25.15
2023-07-19T10:28:33.127Z,25.66
2023-07-19T10:30:45.680Z,25.66
2023-07-19T10:31:10.282Z,25.62
2023-07-19T10:33:46.991Z,25.62
2023-07-19T10:35:45.718Z,25.62
2023-07-19T10:36:14.992Z,25.87
2023-07-19T10:38:41.480Z,25.84
2023-07-19T10:40:45.712Z,25.84
2023-07-19T10:41:10.037Z,25.90
2023-07-19T10:45:45.746Z,26.35
2023-07-19T10:46:07.805Z,26.07
2023-07-19T10:48:41.547Z,26.36
2023-07-19T10:50:45.689Z,26.36
2023-07-19T10:51:09.124Z,25.84
2023-07-19T10:53:47.267Z,25.95
2023-07-19T10:55:53.566Z,25.95
2023-07-19T10:56:15.770Z,26.14
2023-07-19T10:58:43.817Z,26.43
2023-07-19T11:00:45.741Z,26.43
2023-07-19T11:01:10.387Z,26.60
2023-07-19T11:03:37.000Z,26.05
2023-07-19T11:05:45.723Z,26.05
2023-07-19T11:06:07.505Z,26.24
2023-07-19T11:08:33.940Z,26.24
2023-07-19T11:10:45.694Z,26.24
2023-07-19T11:11:00.465Z,26.54
2023-07-19T11:13:27.534Z,26.21
2023-07-19T11:15:45.709Z,26.21
2023-07-19T11:16:02.063Z,26.57
2023-07-19T11:18:30.680Z,26.92
2023-07-19T11:20:47.705Z,26.92
2023-07-19T11:20:58.852Z,27.65
2023-07-19T11:23:26.748Z,27.26
2023-07-19T11:25:45.699Z,27.26
2023-07-19T11:26:04.080Z,26.96
2023-07-19T11:28:43.127Z,26.95
2023-07-19T11:30:45.781Z,26.95
2023-07-19T11:31:11.529Z,27.31
2023-07-19T11:33:40.550Z,26.96
2023-07-19T11:35:45.709Z,26.96
2023-07-19T11:36:09.026Z,26.61
2023-07-19T11:38:39.036Z,26.53
2023-07-19T11:40:45.738Z,26.53
2023-07-19T11:41:05.596Z,26.91
2023-07-19T11:43:32.421Z,27.46
2023-07-19T11:45:45.736Z,27.46
2023-07-19T11:45:58.884Z,27.15
2023-07-19T11:48:27.782Z,27.22
2023-07-19T11:50:45.795Z,27.22
2023-07-19T11:50:55.204Z,27.06
2023-07-19T11:53:21.618Z,26.90
2023-07-19T11:55:45.792Z,26.90
2023-07-19T11:55:48.732Z,26.76
2023-07-19T11:58:15.123Z,27.01
2023-07-19T12:00:41.669Z,27.09
2023-07-19T12:00:45.848Z,27.09
2023-07-19T12:03:08.298Z,27.31
2023-07-19T12:05:35.397Z,26.33
2023-07-19T12:05:45.860Z,26.33
2023-07-19T12:08:04.014Z,26.56
2023-07-19T12:10:31.061Z,25.79
2023-07-19T12:10:45.844Z,25.79
2023-07-19T12:12:58.712Z,25.92
2023-07-19T12:15:26.981Z,25.90
2023-07-19T12:15:45.929Z,25.90
2023-07-19T12:17:56.197Z,26.41
2023-07-19T12:20:22.691Z,26.23
2023-07-19T12:20:45.903Z,26.23
2023-07-19T12:22:50.064Z,26.15
2023-07-19T12:25:16.578Z,26.04
2023-07-19T12:25:45.906Z,26.04
2023-07-19T12:27:43.425Z,25.50
2023-07-19T12:30:11.287Z,25.32
2023-07-19T12:30:45.963Z,25.32
2023-07-19T12:32:39.576Z,25.76
2023-07-19T12:35:06.368Z,26.42
2023-07-19T12:35:45.955Z,26.42
2023-07-19T12:37:34.384Z,27.02
2023-07-19T12:40:00.737Z,26.44
2023-07-19T12:40:45.951Z,26.44
2023-07-19T12:42:29.062Z,26.19
2023-07-19T12:44:55.510Z,26.30
2023-07-19T12:45:45.966Z,26.30
2023-07-19T12:47:21.923Z,25.69
2023-07-19T12:49:48.329Z,26.08
2023-07-19T12:50:46.008Z,26.08
2023-07-19T12:52:16.864Z,26.07
2023-07-19T12:54:43.271Z,26.46
2023-07-19T12:55:45.995Z,26.46
2023-07-19T12:57:09.680Z,26.54
2023-07-19T12:59:36.355Z,26.74
2023-07-19T13:00:46.061Z,26.74
2023-07-19T13:02:03.466Z,26.99
2023-07-19T13:04:30.530Z,26.48
2023-07-19T13:05:46.097Z,26.48
2023-07-19T13:06:58.939Z,26.31
2023-07-19T13:09:25.340Z,26.35
2023-07-19T13:10:46.073Z,26.35
2023-07-19T13:11:51.918Z,26.75
2023-07-19T13:14:18.374Z,26.63
2023-07-19T13:15:46.162Z,26.63
2023-07-19T13:16:44.907Z,26.31
2023-07-19T13:19:12.479Z,26.57
2023-07-19T13:20:46.098Z,26.57
2023-07-19T13:21:38.958Z,26.88
2023-07-19T13:24:05.845Z,27.33
2023-07-19T13:25:46.167Z,27.33
2023-07-19T13:26:32.531Z,27.50
2023-07-19T13:29:01.354Z,27.27
2023-07-19T13:30:46.153Z,27.27
2023-07-19T13:31:28.891Z,26.98
2023-07-19T13:33:57.730Z,26.90
2023-07-19T13:36:29.564Z,27.05
2023-07-19T13:38:57.264Z,27.33
2023-07-19T13:40:46.185Z,27.33
2023-07-19T13:41:24.669Z,27.45
2023-07-19T13:43:54.463Z,26.81
2023-07-19T13:45:46.190Z,26.81
2023-07-19T13:46:23.345Z,28.11
2023-07-19T13:48:50.708Z,27.71
2023-07-19T13:50:46.232Z,27.71
2023-07-19T13:51:17.198Z,27.50
2023-07-19T13:53:43.892Z,27.04
2023-07-19T13:55:46.264Z,27.04
2023-07-19T13:56:11.663Z,27.45
2023-07-19T13:58:39.780Z,27.37
2023-07-19T14:00:46.316Z,27.37
2023-07-19T14:01:06.452Z,27.62
2023-07-19T14:03:33.110Z,27.39
2023-07-19T14:05:46.393Z,27.39
2023-07-19T14:05:59.465Z,27.39
2023-07-19T14:08:25.851Z,26.84
2023-07-19T14:10:46.332Z,26.84
2023-07-19T14:10:52.534Z,27.22
2023-07-19T14:15:47.070Z,26.84
2023-07-19T14:15:48.392Z,26.53
2023-07-19T14:18:16.243Z,26.74
2023-07-19T14:20:42.801Z,26.38
2023-07-19T14:20:46.352Z,26.38
2023-07-19T14:23:09.331Z,26.47
2023-07-19T14:25:37.983Z,26.55
2023-07-19T14:25:46.418Z,26.55
2023-07-19T14:28:04.593Z,26.21
2023-07-19T14:30:31.032Z,26.48
2023-07-19T14:30:46.414Z,26.48
2023-07-19T14:32:57.439Z,27.17
2023-07-19T14:35:23.925Z,26.61
2023-07-19T14:35:46.458Z,26.61
2023-07-19T14:37:50.393Z,26.40
2023-07-19T14:40:16.801Z,26.79
2023-07-19T14:40:46.531Z,26.79
2023-07-19T14:42:43.644Z,26.48
2023-07-19T14:45:10.406Z,26.50
2023-07-19T14:45:46.498Z,26.50
2023-07-19T14:47:38.789Z,26.53
2023-07-19T14:50:06.794Z,26.67
2023-07-19T14:50:56.177Z,26.67
2023-07-19T14:52:33.274Z,26.77
2023-07-19T14:55:08.768Z,26.65
2023-07-19T14:55:46.375Z,26.65
2023-07-19T14:57:35.126Z,26.75
2023-07-19T15:00:11.497Z,26.97
2023-07-19T15:02:39.646Z,26.05
2023-07-19T15:05:06.568Z,26.16
2023-07-19T15:05:47.323Z,26.16
2023-07-19T15:07:33.082Z,26.01
2023-07-19T15:09:59.603Z,25.17
2023-07-19T15:10:46.469Z,25.17
2023-07-19T15:12:26.577Z,25.66
2023-07-19T15:14:53.492Z,25.92
2023-07-19T15:15:46.384Z,25.92
2023-07-19T15:17:19.987Z,25.65
2023-07-19T15:19:46.457Z,25.73
2023-07-19T15:20:46.737Z,25.73
2023-07-19T15:22:12.981Z,26.07
2023-07-19T15:24:40.494Z,26.43
2023-07-19T15:25:46.380Z,26.43
2023-07-19T15:27:09.172Z,26.19
2023-07-19T15:29:36.618Z,26.08
2023-07-19T15:30:46.429Z,26.08
2023-07-19T15:32:03.289Z,25.98
2023-07-19T15:34:29.784Z,26.20
2023-07-19T15:35:46.393Z,26.20
2023-07-19T15:36:56.247Z,25.83
2023-07-19T15:39:23.880Z,25.94
2023-07-19T15:40:46.380Z,25.94
2023-07-19T15:41:51.858Z,25.81
2023-07-19T15:44:34.454Z,25.84
2023-07-19T15:45:46.459Z,25.84
2023-07-19T15:47:03.560Z,25.99
2023-07-19T15:49:29.908Z,25.77
2023-07-19T15:50:48.040Z,25.77
2023-07-19T15:51:58.378Z,25.44
2023-07-19T15:54:24.824Z,25.48
2023-07-19T15:55:46.391Z,25.48
2023-07-19T15:56:51.311Z,25.43
2023-07-19T15:59:17.824Z,25.66
2023-07-19T16:00:46.402Z,25.66
2023-07-19T16:01:44.581Z,25.63
2023-07-19T16:04:11.095Z,25.36
2023-07-19T16:05:46.502Z,25.36
2023-07-19T16:06:37.496Z,24.96
2023-07-19T16:09:03.963Z,24.93
2023-07-19T16:10:46.518Z,24.93
2023-07-19T16:11:30.632Z,25.28
2023-07-19T16:13:58.159Z,25.13
2023-07-19T16:15:46.407Z,25.13
2023-07-19T16:16:27.998Z,25.06
2023-07-19T16:18:54.448Z,24.89
2023-07-19T16:20:46.392Z,24.89
2023-07-19T16:21:25.058Z,24.34
2023-07-19T16:23:51.552Z,24.14
2023-07-19T16:25:46.386Z,24.14
2023-07-19T16:26:17.906Z,23.22
2023-07-19T16:28:44.280Z,23.59
2023-07-19T16:30:46.461Z,23.59
2023-07-19T16:31:14.366Z,23.35
2023-07-19T16:33:40.980Z,23.34
2023-07-19T16:35:46.385Z,23.34
2023-07-19T16:36:07.457Z,23.34
2023-07-19T16:38:33.941Z,23.32
2023-07-19T16:40:46.397Z,23.32
2023-07-19T16:41:00.408Z,22.98
2023-07-19T16:43:26.884Z,23.08
2023-07-19T16:45:46.391Z,23.08
2023-07-19T16:45:53.491Z,22.96
2023-07-19T16:48:21.910Z,22.70
2023-07-19T16:50:46.377Z,22.70
2023-07-19T16:50:48.771Z,23.07
2023-07-19T16:53:18.095Z,22.97
2023-07-19T16:55:46.438Z,23.26
2023-07-19T16:55:46.594Z,23.26
2023-07-19T16:58:13.284Z,23.72
2023-07-19T17:00:40.854Z,23.49
2023-07-19T17:00:46.417Z,23.49
2023-07-19T17:03:09.144Z,23.81
2023-07-19T17:05:35.988Z,23.47
2023-07-19T17:05:46.471Z,23.47
2023-07-19T17:08:04.621Z,23.73
2023-07-19T17:10:35.856Z,24.02
2023-07-19T17:10:46.386Z,24.02
2023-07-19T17:13:07.156Z,24.12
2023-07-19T17:15:36.899Z,24.17
2023-07-19T17:15:46.396Z,24.17
2023-07-19T17:18:06.103Z,24.53
2023-07-19T17:20:34.584Z,24.37
2023-07-19T17:20:46.510Z,24.37
2023-07-19T17:23:01.303Z,24.08
2023-07-19T17:25:27.788Z,23.91
2023-07-19T17:25:46.426Z,23.91
2023-07-19T17:27:54.170Z,24.27
2023-07-19T17:30:20.555Z,23.69
2023-07-19T17:30:46.423Z,23.69
2023-07-19T17:32:49.020Z,23.74
2023-07-19T17:35:15.930Z,23.84
2023-07-19T17:35:46.428Z,23.84
2023-07-19T17:37:42.433Z,23.81
2023-07-19T17:40:10.349Z,23.97
2023-07-19T17:40:46.394Z,23.97
2023-07-19T17:42:37.739Z,23.53
2023-07-19T17:45:04.528Z,23.89
2023-07-19T17:45:46.394Z,23.89
2023-07-19T17:47:31.328Z,23.50
2023-07-19T17:49:58.159Z,23.78
2023-07-19T17:50:46.402Z,23.78
2023-07-19T17:52:24.909Z,23.22
2023-07-19T17:54:54.145Z,23.28
2023-07-19T17:55:46.406Z,23.28
2023-07-19T17:57:21.565Z,23.36
2023-07-19T17:59:47.979Z,23.20
2023-07-19T18:00:46.398Z,23.20
2023-07-19T18:02:14.561Z,22.74
2023-07-19T18:04:42.881Z,22.85
2023-07-19T18:05:46.487Z,22.85
2023-07-19T18:07:09.356Z,22.79
2023-07-19T18:09:35.849Z,22.52
2023-07-19T18:10:46.416Z,22.52
2023-07-19T18:12:02.792Z,22.33
2023-07-19T18:14:29.828Z,22.28
2023-07-19T18:15:46.402Z,22.28
2023-07-19T18:16:56.213Z,22.47
2023-07-19T18:19:22.824Z,22.34
2023-07-19T18:20:46.423Z,22.34
2023-07-19T18:22:03.069Z,22.26
2023-07-19T18:24:32.380Z,21.58
2023-07-19T18:25:46.402Z,21.58
2023-07-19T18:26:59.680Z,21.89
2023-07-19T18:29:27.079Z,21.44
2023-07-19T18:30:46.519Z,21.44
2023-07-19T18:31:53.735Z,21.60
2023-07-19T18:34:20.785Z,21.64
2023-07-19T18:35:46.412Z,21.64
2023-07-19T18:36:47.315Z,21.62
2023-07-19T18:39:14.117Z,21.34
2023-07-19T18:40:46.409Z,21.34
2023-07-19T18:41:40.503Z,21.62
2023-07-19T18:44:07.270Z,21.59
2023-07-19T18:45:46.383Z,21.59
2023-07-19T18:46:33.717Z,20.96
2023-07-19T18:49:00.206Z,21.27
2023-07-19T18:50:46.422Z,21.27
2023-07-19T18:51:26.645Z,21.45
2023-07-19T18:53:53.221Z,21.10
2023-07-19T18:55:46.399Z,21.10
2023-07-19T18:56:23.501Z,21.49
2023-07-19T18:58:51.376Z,21.37
2023-07-19T19:00:46.434Z,21.37
2023-07-19T19:01:18.556Z,20.90
2023-07-19T19:03:47.347Z,21.17
2023-07-19T19:05:46.486Z,21.17
2023-07-19T19:06:13.881Z,20.94
2023-07-19T19:08:40.433Z,20.65
2023-07-19T19:10:46.445Z,20.65
2023-07-19T19:11:06.874Z,20.64
2023-07-19T19:13:33.351Z,20.90
2023-07-19T19:15:46.428Z,20.90
2023-07-19T19:16:02.414Z,20.85
2023-07-19T19:18:28.940Z,20.39
2023-07-19T19:20:46.414Z,20.39
2023-07-19T19:20:55.560Z,20.58
2023-07-19T19:23:22.087Z,20.65
2023-07-19T19:25:46.394Z,20.65
2023-07-19T19:25:48.967Z,20.13
2023-07-19T19:28:18.195Z,20.32
2023-07-19T19:30:44.818Z,20.19
2023-07-19T19:30:46.454Z,20.19
2023-07-19T19:33:11.510Z,20.39
2023-07-19T19:35:41.684Z,20.31
2023-07-19T19:35:46.432Z,20.31
2023-07-19T19:38:08.128Z,20.17
2023-07-19T19:40:34.536Z,20.02
2023-07-19T19:40:46.394Z,20.02
2023-07-19T19:43:01.172Z,20.02
2023-07-19T19:45:27.589Z,20.00
2023-07-19T19:45:48.429Z,20.00
2023-07-19T19:47:53.969Z,19.69
2023-07-19T19:50:20.503Z,19.77
2023-07-19T19:50:46.520Z,19.77
2023-07-19T19:52:55.333Z,19.54
2023-07-19T19:55:48.800Z,19.69
2023-07-19T19:58:09.093Z,19.44
2023-07-19T20:00:35.908Z,19.78
2023-07-19T20:00:46.403Z,19.78
2023-07-19T20:08:01.314Z,19.72
2023-07-19T20:10:27.744Z,19.55
2023-07-19T20:12:54.777Z,19.54
2023-07-19T20:15:21.904Z,19.69
2023-07-19T20:15:46.404Z,19.69
2023-07-19T20:17:48.380Z,19.41
2023-07-19T20:20:22.628Z,19.33
2023-07-19T20:20:46.398Z,19.33
2023-07-19T20:22:50.708Z,19.22
2023-07-19T20:25:29.043Z,19.61
2023-07-19T20:25:52.573Z,19.61
2023-07-19T20:28:03.668Z,19.26
2023-07-19T20:30:30.205Z,19.55
2023-07-19T20:32:56.802Z,19.57
2023-07-19T20:37:52.862Z,19.01
2023-07-19T20:42:51.051Z,18.72
2023-07-19T20:45:23.879Z,18.36
2023-07-19T20:45:46.439Z,18.36
2023-07-19T20:47:52.740Z,19.17
2023-07-19T20:50:19.128Z,19.13
2023-07-19T20:50:46.395Z,19.13
2023-07-19T20:52:45.602Z,19.03
2023-07-19T20:55:12.116Z,18.64
2023-07-19T20:55:46.414Z,18.64
2023-07-19T20:57:38.548Z,18.93
2023-07-19T21:00:06.074Z,18.88
2023-07-19T21:00:46.407Z,18.88
2023-07-19T21:02:32.594Z,18.85
2023-07-19T21:04:59.079Z,18.73
2023-07-19T21:05:46.431Z,18.73
2023-07-19T21:07:25.508Z,18.26
2023-07-19T21:09:51.895Z,18.56
2023-07-19T21:10:46.400Z,18.56
2023-07-19T21:12:18.764Z,18.48
2023-07-19T21:14:45.147Z,18.38
2023-07-19T21:15:46.424Z,18.38
2023-07-19T21:17:11.500Z,18.29
2023-07-19T21:19:37.869Z,18.23
2023-07-19T21:20:46.419Z,18.23
2023-07-19T21:22:04.517Z,18.14
2023-07-19T21:24:30.900Z,18.11
2023-07-19T21:25:46.447Z,18.11
2023-07-19T21:26:57.234Z,17.61
2023-07-19T21:29:28.585Z,17.97
2023-07-19T21:30:46.403Z,17.97
2023-07-19T21:31:57.984Z,17.77
2023-07-19T21:34:24.455Z,17.84
2023-07-19T21:35:46.431Z,17.84
2023-07-19T21:36:50.799Z,17.77
2023-07-19T21:39:17.216Z,17.72